CheckWX is a tool to help pilots better visualize weather data.  It is not intended as a substitute for an official pre-flight weather briefing.

22:14:27 UTC

1M4 METAR
Posey Field Airport
Haleyville, Alabama, USA
Current

18 mins ago

K1M4 252156Z AUTO 32005KT 10SM TS FEW028 BKN060 OVC070 15/13 A3001 RMK AO2 TSB17RAB24E45 SLP183 P0015 T01500133
Observed
Mar-25 @ 21:56 UTC
Wind
  • 320° at 5 KTS
Visibility
10 SM
Flight Rules
VFR
Conditions
Thunderstorm
Cloud Levels
  • Few at 2,800' AGL
  • Broken at 6,000' AGL
  • Overcast at 7,000' AGL
Temperature
15°C / 59°F
Dewpoint
13°C / 55°F
Humidity
88%
Altimeter
30.01" Hg
Pressure
1018.3 hPa
Current Rain
0.15"
Previous

28 mins ago

K1M4 252146Z AUTO 34004KT 10SM TS FEW023 BKN049 OVC060 14/12 A3002 RMK AO2 TSB17RAB24E45 P0015
Observed
Mar-25 @ 21:46 UTC
Wind
  • 340° at 4 KTS
Visibility
10 SM
Flight Rules
VFR
Conditions
Thunderstorm
Cloud Levels
  • Few at 2,300' AGL
  • Broken at 4,900' AGL
  • Overcast at 6,000' AGL
Temperature
14°C / 57°F
Dewpoint
12°C / 54°F
Humidity
88%
Altimeter
30.02" Hg
Pressure
1016.62 hPa
Current Rain
0.15"
Previous

46 mins ago

K1M4 252128Z AUTO 34012G23KT 5SM +TSRA BKN021 BKN026 OVC046 15/12 A3002 RMK AO2 TSB17RAB24 P0006
Observed
Mar-25 @ 21:28 UTC
Wind
  • 340° at 12 KTS
  • Gusting to 23 KTS
Visibility
5 SM
Flight Rules
MVFR
Conditions
Heavy Thunderstorm, Heavy Rain
Cloud Levels
  • Broken at 2,100' AGL
  • Broken at 2,600' AGL
  • Overcast at 4,600' AGL
Temperature
15°C / 59°F
Dewpoint
12°C / 54°F
Humidity
82%
Altimeter
30.02" Hg
Pressure
1016.62 hPa
Current Rain
0.06"